Drummondville, Canada
Current Conditions -  °F | °C
As of 9:00 AM on Thursday 30 Oct 2014 (Local Time) from CYRQ Reporting Station
Clear Clear  
Wind Chill: 36°   Ceiling: Unl
Heat Index: 39°   Visibility: 9mi
Dew Point: 34°   Wind: 5mph
Humidity: 81%   Direction: 260°W
Pressure: 29.93"   Gusts: NA
Location:  45.88°N, 72.48°W
Report Text: CYRQ 301300Z AUTO 26004KT 9SM CLR 04/01 A2993 RMK SLP137
Loading
Personal Weather Stations






























Interactive Weather Map
Tropical Storm Tracking
New forecast layout! Learn more

10-Day Weather Forecast

Advertisements
Track Severe Weather on mobile